Houlton, ME

4:52 PM EST on November 27, 2014 (GMT -0500)
Houlton International | Change Station
CLOSE
Current Station
Airport
Location: Houlton,
Elevation: 492 ft
Nearby Weather Stations

Elev 492 ft 46.12 °N, 67.79 °W | Updated 59 minutes ago

Overcast
Overcast
26 °F
Feels Like 18 °F
N
8
Wind Variable Wind from North

Today
High -- | Low -- °F
--% Chance of Precip.
Yesterday
High -- | Low -- °F
Precip. -- in
6:48 AM 3:49 PM
Waxing Crescent, 33% visible
Pressure 29.95 in
Visibility 10.0 miles
Clouds Overcast 2700 ft
Windchill 18 °F
Dew Point 17 °F
Humidity 69%
Rainfall 0.04 in
Snow Depth Not available.
UV 0 out of 12
Pollen .10 out of 12
Air Quality Not available.
Flu Activity Not available.
METAR KHUL 272053Z AUTO 35007KT 10SM OVC027 M03/M08 A2992 RMK AO2 SLP140 T10331083 53030 $

More Conditions Fewer Conditions

Pressure 29.95 in
Visibility 10.0 miles
Clouds Overcast 2700 ft
Windchill 18 °F
Dew Point 17 °F
Humidity 69%
Rainfall 0.04 in
Snow Depth Not available.
UV 0 out of 12
Pollen .10 out of 12
Air Quality Not available.
Flu Activity Not available.
METAR KHUL 272053Z AUTO 35007KT 10SM OVC027 M03/M08 A2992 RMK AO2 SLP140 T10331083 53030 $

More Conditions Fewer Conditions

10-Day Weather Forecast

Almanac

Astronomy

Nov. 27, 2014 Rise Set
Actual Time
Civil Twilight
Nautical Twilight
Astronomical Twilight
Moon
Length of Visible Light
Length of Day
Tomorrow will be .
, % of the Moon is Illuminated

Today's Extremes

State Highs State Lows

Community

WunderPhotos

Upload Photos

1,774,115 photos uploaded!

WunderBlogs® & News

Nearby

Air Quality

  Air Quality AQ Index Pollutant
Not available.

Snow Depth

Station Depth Elevation

Earthquake Activity

City Distance Mag. Time & Date
Minimum magnitude displayed is 2.5.

Coastal Water Temperatures

Place Temperature

Nearby Weather Stations